createdAt,value
2022-11-29T00:01:34.716Z,13.50
2022-11-29T00:04:03.167Z,19.23
2022-11-29T00:06:32.890Z,19.05
2022-11-29T00:09:09.669Z,19.73
2022-11-29T00:11:57.062Z,19.05
2022-11-29T00:14:26.439Z,18.83
2022-11-29T00:16:57.208Z,18.13
2022-11-29T00:19:24.975Z,18.10
2022-11-29T00:21:52.464Z,17.15
2022-11-29T00:24:20.115Z,18.08
2022-11-29T00:26:48.501Z,17.33
2022-11-29T00:29:16.396Z,17.20
2022-11-29T00:31:44.383Z,16.77
2022-11-29T00:34:12.721Z,18.05
2022-11-29T00:36:40.447Z,16.88
2022-11-29T00:39:11.658Z,17.95
2022-11-29T00:41:39.732Z,16.75
2022-11-29T00:44:07.104Z,16.90
2022-11-29T00:46:34.545Z,16.20
2022-11-29T00:49:02.025Z,16.83
2022-11-29T00:51:29.616Z,16.27
2022-11-29T00:53:57.038Z,16.15
2022-11-29T00:56:24.497Z,15.63
2022-11-29T00:58:51.907Z,15.50
2022-11-29T01:01:19.502Z,15.80
2022-11-29T01:03:47.164Z,16.05
2022-11-29T01:06:16.742Z,14.38
2022-11-29T01:08:45.745Z,14.55
2022-11-29T01:11:17.786Z,14.88
2022-11-29T01:13:45.510Z,14.63
2022-11-29T01:16:14.431Z,14.70
2022-11-29T01:18:42.921Z,14.88
2022-11-29T01:21:16.247Z,14.57
2022-11-29T01:23:45.111Z,15.63
2022-11-29T01:26:15.258Z,15.07
2022-11-29T01:28:45.428Z,14.40
2022-11-29T01:31:24.712Z,13.75
2022-11-29T01:34:00.823Z,14.23
2022-11-29T01:36:28.597Z,14.13
2022-11-29T01:38:56.278Z,14.07
2022-11-29T01:41:29.375Z,13.90
2022-11-29T01:44:01.406Z,13.98
2022-11-29T01:46:32.274Z,13.90
2022-11-29T01:49:05.315Z,13.73
2022-11-29T01:51:35.498Z,12.43
2022-11-29T01:54:03.689Z,12.50
2022-11-29T01:56:34.175Z,12.30
2022-11-29T01:59:06.290Z,13.23
2022-11-29T02:01:35.123Z,12.23
2022-11-29T02:04:02.934Z,12.48
2022-11-29T02:06:30.675Z,13.02
2022-11-29T02:08:58.308Z,12.15
2022-11-29T02:11:52.153Z,11.77
2022-11-29T02:14:40.937Z,10.45
2022-11-29T02:17:49.274Z,10.32
2022-11-29T02:20:47.685Z,10.60
2022-11-29T02:23:20.816Z,10.52
2022-11-29T02:26:10.149Z,10.88
2022-11-29T02:28:59.415Z,11.13
2022-11-29T02:31:57.270Z,10.05
2022-11-29T02:34:53.617Z,10.10
2022-11-29T02:37:42.082Z,11.07
2022-11-29T02:40:24.449Z,11.02
2022-11-29T02:46:01.748Z,10.85
2022-11-29T02:48:38.092Z,11.05
2022-11-29T02:51:32.752Z,11.35
2022-11-29T02:54:23.923Z,11.32
2022-11-29T02:56:59.142Z,10.60
2022-11-29T03:00:02.016Z,9.73
2022-11-29T03:02:42.904Z,11.23
2022-11-29T03:05:39.512Z,10.93
2022-11-29T03:08:25.057Z,10.75
2022-11-29T03:11:07.345Z,10.43
2022-11-29T03:16:39.691Z,10.35
2022-11-29T03:19:22.803Z,10.25
2022-11-29T03:22:08.939Z,11.15
2022-11-29T03:24:56.162Z,10.32
2022-11-29T03:27:37.990Z,11.35
2022-11-29T03:30:09.634Z,10.68
2022-11-29T03:33:02.641Z,10.95
2022-11-29T03:35:51.320Z,11.57
2022-11-29T03:38:34.008Z,10.65
2022-11-29T03:41:20.141Z,10.57
2022-11-29T03:44:00.065Z,11.20
2022-11-29T03:46:42.177Z,10.45
2022-11-29T03:49:26.203Z,10.75
2022-11-29T03:52:26.152Z,11.35
2022-11-29T03:55:46.423Z,10.93
2022-11-29T03:58:34.880Z,11.65
2022-11-29T04:01:35.824Z,11.45
2022-11-29T04:04:34.352Z,10.52
2022-11-29T04:07:07.942Z,10.70
2022-11-29T04:10:05.714Z,10.30
2022-11-29T04:13:01.428Z,11.52
2022-11-29T04:15:51.548Z,11.52
2022-11-29T04:19:15.731Z,11.00
2022-11-29T04:22:05.640Z,11.02
2022-11-29T04:24:55.803Z,10.38
2022-11-29T04:27:53.387Z,12.27
2022-11-29T04:30:23.703Z,13.43
2022-11-29T04:33:10.347Z,13.05
2022-11-29T04:36:14.547Z,14.05
2022-11-29T04:39:00.164Z,11.35
2022-11-29T04:41:39.529Z,12.55
2022-11-29T04:44:25.639Z,13.65
2022-11-29T04:47:08.074Z,13.07
2022-11-29T04:50:03.520Z,12.25
2022-11-29T04:52:39.715Z,12.43
2022-11-29T04:55:43.021Z,12.23
2022-11-29T04:59:02.579Z,11.90
2022-11-29T05:01:45.963Z,10.98
2022-11-29T05:04:34.561Z,11.35
2022-11-29T05:07:14.610Z,11.73
2022-11-29T05:10:05.820Z,10.80
2022-11-29T05:12:42.976Z,11.13
2022-11-29T05:15:48.000Z,10.60
2022-11-29T05:18:21.531Z,10.88
2022-11-29T05:21:19.302Z,11.45
2022-11-29T05:24:11.775Z,11.07
2022-11-29T05:29:29.787Z,10.20
2022-11-29T05:32:23.330Z,9.77
2022-11-29T05:34:59.550Z,9.98
2022-11-29T05:37:48.484Z,10.60
2022-11-29T05:40:44.228Z,10.30
2022-11-29T05:43:30.051Z,10.90
2022-11-29T05:46:21.169Z,10.85
2022-11-29T05:48:53.403Z,10.25
2022-11-29T05:54:12.886Z,10.23
2022-11-29T05:56:48.500Z,11.13
2022-11-29T05:59:21.827Z,10.43
2022-11-29T06:02:11.176Z,10.60
2022-11-29T06:05:09.332Z,10.63
2022-11-29T06:07:58.583Z,11.10
2022-11-29T06:10:32.820Z,10.63
2022-11-29T06:13:35.172Z,10.77
2022-11-29T06:16:28.593Z,10.15
2022-11-29T06:19:28.871Z,9.85
2022-11-29T06:22:17.028Z,9.88
2022-11-29T06:25:23.400Z,10.13
2022-11-29T06:28:13.937Z,9.52
2022-11-29T06:31:05.557Z,10.50
2022-11-29T06:33:47.874Z,9.23
2022-11-29T06:38:43.479Z,11.45
2022-11-29T06:41:18.360Z,11.30
2022-11-29T06:43:46.310Z,8.95
2022-11-29T06:46:25.722Z,9.25
2022-11-29T06:49:02.416Z,8.52
2022-11-29T06:52:03.385Z,8.18
2022-11-29T06:55:01.581Z,8.65
2022-11-29T06:57:54.544Z,9.73
2022-11-29T07:00:27.172Z,8.38
2022-11-29T07:03:06.775Z,8.93
2022-11-29T07:05:35.585Z,8.00
2022-11-29T07:08:14.123Z,8.35
2022-11-29T07:10:43.004Z,8.65
2022-11-29T07:13:13.682Z,8.25
2022-11-29T07:16:08.023Z,9.30
2022-11-29T07:18:54.198Z,8.00
2022-11-29T07:21:28.303Z,8.43
2022-11-29T07:24:12.333Z,8.98
2022-11-29T07:26:59.759Z,8.20
2022-11-29T07:29:53.704Z,9.07
2022-11-29T07:32:50.059Z,9.20
2022-11-29T07:35:45.458Z,8.40
2022-11-29T07:39:06.789Z,9.98
2022-11-29T07:41:55.065Z,9.52
2022-11-29T07:44:47.393Z,9.00
2022-11-29T07:49:42.179Z,10.38
2022-11-29T07:52:13.376Z,10.32
2022-11-29T07:54:40.973Z,9.75
2022-11-29T07:57:08.526Z,9.23
2022-11-29T07:59:35.921Z,9.52
2022-11-29T08:02:08.786Z,8.68
2022-11-29T08:04:45.161Z,9.88
2022-11-29T08:07:12.770Z,9.48
2022-11-29T08:09:40.141Z,10.27
2022-11-29T08:12:07.583Z,9.40
2022-11-29T08:14:34.991Z,8.65
2022-11-29T08:17:02.452Z,8.82
2022-11-29T08:19:30.055Z,9.52
2022-11-29T08:21:57.422Z,10.05
2022-11-29T08:24:26.295Z,9.02
2022-11-29T08:26:53.820Z,8.75
2022-11-29T08:29:21.275Z,10.45
2022-11-29T08:31:53.470Z,10.50
2022-11-29T08:34:22.586Z,9.23
2022-11-29T08:36:51.086Z,9.10
2022-11-29T08:39:18.497Z,9.52
2022-11-29T08:41:46.201Z,13.52
2022-11-29T08:44:13.562Z,8.93
2022-11-29T08:46:59.639Z,8.38
2022-11-29T08:49:27.082Z,8.95
2022-11-29T08:52:14.445Z,9.93
2022-11-29T08:54:42.048Z,9.32
2022-11-29T08:59:56.921Z,8.80
2022-11-29T09:02:24.393Z,9.15
2022-11-29T09:04:51.811Z,8.38
2022-11-29T09:07:19.208Z,9.13
2022-11-29T09:09:46.587Z,8.27
2022-11-29T09:12:14.160Z,9.68
2022-11-29T09:14:41.647Z,8.82
2022-11-29T09:17:09.054Z,8.20
2022-11-29T09:19:36.406Z,8.57
2022-11-29T09:22:03.793Z,8.88
2022-11-29T09:24:31.228Z,8.25
2022-11-29T09:26:58.667Z,8.23
2022-11-29T09:29:26.163Z,8.73
2022-11-29T09:31:53.603Z,7.88
2022-11-29T09:34:21.009Z,7.38
2022-11-29T09:36:48.441Z,9.57
2022-11-29T09:39:15.821Z,8.38
2022-11-29T09:41:49.340Z,8.25
2022-11-29T09:44:22.334Z,8.38
2022-11-29T09:47:03.812Z,9.48
2022-11-29T09:50:08.845Z,8.60
2022-11-29T09:53:13.563Z,8.60
2022-11-29T09:56:04.333Z,8.95
2022-11-29T09:58:40.593Z,9.25
2022-11-29T10:01:13.206Z,8.70
2022-11-29T10:03:49.625Z,8.63
2022-11-29T10:06:29.151Z,8.20
2022-11-29T10:09:02.243Z,8.85
2022-11-29T10:11:48.531Z,7.60
2022-11-29T10:14:21.437Z,7.97
2022-11-29T10:16:51.697Z,7.70
2022-11-29T10:19:33.357Z,7.10
2022-11-29T10:22:11.985Z,8.43
2022-11-29T10:24:41.873Z,8.15
2022-11-29T10:27:30.079Z,7.75
2022-11-29T10:30:00.966Z,7.70
2022-11-29T10:32:32.064Z,8.40
2022-11-29T10:35:01.613Z,7.72
2022-11-29T10:37:32.727Z,7.30
2022-11-29T10:40:05.096Z,8.13
2022-11-29T10:42:52.646Z,8.35
2022-11-29T10:45:34.991Z,7.00
2022-11-29T10:48:14.715Z,7.63
2022-11-29T10:50:44.462Z,7.93
2022-11-29T10:53:26.969Z,8.10
2022-11-29T10:58:31.785Z,7.13
2022-11-29T11:01:07.947Z,8.05
2022-11-29T11:03:45.083Z,7.63
2022-11-29T11:06:20.788Z,8.20
2022-11-29T11:08:52.826Z,7.72
2022-11-29T11:11:32.243Z,8.98
2022-11-29T11:14:19.434Z,8.07
2022-11-29T11:16:46.829Z,8.40
2022-11-29T11:19:34.517Z,7.38
2022-11-29T11:22:03.774Z,8.38
2022-11-29T11:24:33.402Z,8.68
2022-11-29T11:27:01.515Z,8.65
2022-11-29T11:29:37.723Z,8.90
2022-11-29T11:32:07.630Z,9.35
2022-11-29T11:34:37.752Z,10.15
2022-11-29T11:37:32.510Z,10.82
2022-11-29T11:40:27.340Z,11.73
2022-11-29T11:42:57.835Z,11.30
2022-11-29T11:45:31.854Z,11.60
2022-11-29T11:48:10.858Z,11.77
2022-11-29T11:50:44.989Z,12.75
2022-11-29T11:53:35.789Z,11.90
2022-11-29T11:56:05.460Z,11.57
2022-11-29T11:58:37.686Z,12.02
2022-11-29T12:04:07.485Z,11.43
2022-11-29T12:06:50.096Z,11.85
2022-11-29T12:09:23.316Z,10.90
2022-11-29T12:12:10.166Z,11.90
2022-11-29T12:14:54.609Z,11.32
2022-11-29T12:17:27.681Z,11.77
2022-11-29T12:20:16.808Z,11.60
2022-11-29T12:22:58.292Z,11.10
2022-11-29T12:25:33.308Z,11.60
2022-11-29T12:28:00.759Z,11.25
2022-11-29T12:30:28.353Z,12.05
2022-11-29T12:33:07.550Z,11.63
2022-11-29T12:35:59.485Z,11.00
2022-11-29T12:38:44.379Z,11.05
2022-11-29T12:41:21.872Z,10.15
2022-11-29T12:44:03.996Z,10.77
2022-11-29T12:46:32.738Z,11.40
2022-11-29T12:49:15.310Z,12.23
2022-11-29T12:52:05.853Z,11.45
2022-11-29T12:54:44.004Z,11.55
2022-11-29T12:57:22.790Z,11.60
2022-11-29T12:59:52.963Z,11.55
2022-11-29T13:02:46.384Z,11.23
2022-11-29T13:05:33.860Z,12.48
2022-11-29T13:08:30.274Z,11.27
2022-11-29T13:11:14.586Z,11.38
2022-11-29T13:14:13.748Z,11.63
2022-11-29T13:17:01.537Z,13.48
2022-11-29T13:19:52.989Z,11.63
2022-11-29T13:22:26.966Z,11.40
2022-11-29T13:25:01.215Z,11.25
2022-11-29T13:27:42.936Z,10.63
2022-11-29T13:30:15.820Z,12.43
2022-11-29T13:32:43.176Z,10.73
2022-11-29T13:35:43.155Z,11.57
2022-11-29T13:38:28.989Z,11.57
2022-11-29T13:40:59.772Z,10.27
2022-11-29T13:43:51.876Z,10.82
2022-11-29T13:46:43.558Z,10.63
2022-11-29T13:49:53.476Z,11.77
2022-11-29T13:52:42.442Z,11.15
2022-11-29T13:55:12.576Z,11.88
2022-11-29T14:00:45.381Z,11.70
2022-11-29T14:03:21.877Z,11.73
2022-11-29T14:05:54.989Z,11.57
2022-11-29T14:08:26.920Z,12.23
2022-11-29T14:11:02.632Z,12.63
2022-11-29T14:13:47.429Z,11.38
2022-11-29T14:16:39.667Z,10.80
2022-11-29T14:19:33.809Z,10.35
2022-11-29T14:22:07.558Z,10.32
2022-11-29T14:24:38.066Z,11.07
2022-11-29T14:27:12.742Z,10.15
2022-11-29T14:29:55.316Z,9.57
2022-11-29T14:32:44.414Z,9.75
2022-11-29T14:35:21.142Z,9.80
2022-11-29T14:38:29.197Z,9.68
2022-11-29T14:41:06.233Z,9.45
2022-11-29T14:43:37.931Z,9.15
2022-11-29T14:46:14.563Z,9.68
2022-11-29T14:48:46.966Z,9.25
2022-11-29T14:51:19.558Z,9.27
2022-11-29T14:54:03.701Z,10.73
2022-11-29T14:56:42.660Z,9.40
2022-11-29T14:59:38.011Z,9.85
2022-11-29T15:02:26.771Z,9.20
2022-11-29T15:04:57.062Z,9.90
2022-11-29T15:07:29.722Z,11.38
2022-11-29T15:10:02.836Z,10.07
2022-11-29T15:12:35.839Z,10.68
2022-11-29T15:15:18.366Z,10.20
2022-11-29T15:21:06.476Z,10.40
2022-11-29T15:23:45.409Z,10.35
2022-11-29T15:26:20.991Z,9.98
2022-11-29T15:28:48.725Z,9.70
2022-11-29T15:31:20.714Z,10.85
2022-11-29T15:33:49.415Z,11.07
2022-11-29T15:36:21.856Z,10.27
2022-11-29T15:38:52.123Z,11.15
2022-11-29T15:41:30.925Z,10.25
2022-11-29T15:44:00.630Z,11.05
2022-11-29T15:46:30.512Z,10.57
2022-11-29T15:49:22.429Z,11.25
2022-11-29T15:52:02.023Z,10.95
2022-11-29T15:54:37.069Z,11.80
2022-11-29T15:57:13.299Z,11.50
2022-11-29T15:59:51.184Z,11.15
2022-11-29T16:02:26.342Z,11.82
2022-11-29T16:05:01.328Z,13.07
2022-11-29T16:07:32.563Z,11.60
2022-11-29T16:10:11.654Z,12.03
2022-11-29T16:12:59.990Z,12.13
2022-11-29T16:15:33.378Z,11.95
2022-11-29T16:18:19.959Z,13.13
2022-11-29T16:21:00.038Z,13.13
2022-11-29T16:23:41.313Z,12.05
2022-11-29T16:26:26.823Z,12.85
2022-11-29T16:28:59.116Z,13.00
2022-11-29T16:31:36.377Z,14.25
2022-11-29T16:34:40.024Z,13.45
2022-11-29T16:37:26.107Z,15.00
2022-11-29T16:39:59.341Z,14.90
2022-11-29T16:42:28.187Z,15.55
2022-11-29T16:45:10.865Z,14.23
2022-11-29T16:47:52.929Z,14.80
2022-11-29T16:50:22.532Z,14.40
2022-11-29T16:52:56.065Z,14.77
2022-11-29T16:55:24.274Z,14.32
2022-11-29T16:57:52.358Z,13.55
2022-11-29T17:00:32.636Z,12.50
2022-11-29T17:03:00.536Z,12.77
2022-11-29T17:05:28.249Z,13.77
2022-11-29T17:07:55.741Z,13.70
2022-11-29T17:10:25.094Z,14.32
2022-11-29T17:12:52.826Z,14.00
2022-11-29T17:15:20.154Z,13.38
2022-11-29T17:17:47.579Z,14.10
2022-11-29T17:20:15.062Z,13.20
2022-11-29T17:22:42.513Z,13.57
2022-11-29T17:25:10.471Z,13.85
2022-11-29T17:27:38.370Z,13.98
2022-11-29T17:30:07.017Z,14.57
2022-11-29T17:32:38.155Z,13.10
2022-11-29T17:35:05.832Z,14.98
2022-11-29T17:37:33.209Z,14.63
2022-11-29T17:40:00.609Z,13.82
2022-11-29T17:42:27.995Z,14.18
2022-11-29T17:44:55.347Z,15.75
2022-11-29T17:47:22.711Z,15.48
2022-11-29T17:49:50.150Z,16.38
2022-11-29T17:52:17.521Z,16.30
2022-11-29T17:54:44.951Z,15.23
2022-11-29T17:57:12.507Z,15.77
2022-11-29T17:59:39.847Z,16.45
2022-11-29T18:02:07.300Z,15.88
2022-11-29T18:04:34.762Z,17.13
2022-11-29T18:07:02.208Z,17.75
2022-11-29T18:09:29.553Z,17.30
2022-11-29T18:11:56.973Z,17.10
2022-11-29T18:14:28.010Z,17.17
2022-11-29T18:16:55.549Z,17.13
2022-11-29T18:19:23.740Z,17.15
2022-11-29T18:21:52.117Z,16.27
2022-11-29T18:24:19.730Z,17.88
2022-11-29T18:26:47.161Z,19.13
2022-11-29T18:29:14.769Z,16.20
2022-11-29T18:31:44.676Z,17.92
2022-11-29T18:34:13.536Z,16.42
2022-11-29T18:36:47.144Z,16.92
2022-11-29T18:39:19.424Z,17.33
2022-11-29T18:41:48.801Z,18.17
2022-11-29T18:44:19.442Z,17.08
2022-11-29T18:46:47.328Z,17.83
2022-11-29T18:49:16.787Z,18.42
2022-11-29T18:51:45.902Z,16.17
2022-11-29T18:54:15.555Z,16.83
2022-11-29T18:56:44.244Z,16.80
2022-11-29T18:59:16.539Z,18.42
2022-11-29T19:01:45.839Z,16.10
2022-11-29T19:04:18.858Z,17.35
2022-11-29T19:06:46.307Z,16.83
2022-11-29T19:09:17.220Z,20.65
2022-11-29T19:11:44.645Z,20.42
2022-11-29T19:14:12.895Z,21.67
2022-11-29T19:16:46.378Z,19.15
2022-11-29T19:19:13.873Z,20.73
2022-11-29T19:21:41.797Z,21.17
2022-11-29T19:24:15.853Z,20.63
2022-11-29T19:26:45.598Z,20.15
2022-11-29T19:29:14.043Z,19.63
2022-11-29T19:31:42.424Z,21.10
2022-11-29T19:34:10.392Z,19.98
2022-11-29T19:36:42.981Z,19.30
2022-11-29T19:39:13.963Z,18.88
2022-11-29T19:41:43.870Z,19.27
2022-11-29T19:44:12.386Z,18.63
2022-11-29T19:46:42.902Z,20.38
2022-11-29T19:49:11.128Z,21.38
2022-11-29T19:51:38.825Z,20.17
2022-11-29T19:54:08.042Z,19.83
2022-11-29T19:56:36.044Z,21.17
2022-11-29T19:59:03.867Z,21.00
2022-11-29T20:01:39.756Z,19.90
2022-11-29T20:04:09.214Z,20.17
2022-11-29T20:06:36.989Z,17.70
2022-11-29T20:09:04.811Z,17.25
2022-11-29T20:11:32.350Z,19.15
2022-11-29T20:14:01.370Z,18.83
2022-11-29T20:16:30.307Z,18.52
2022-11-29T20:18:58.748Z,18.23
2022-11-29T20:21:27.536Z,17.60
2022-11-29T20:23:57.032Z,17.15
2022-11-29T20:26:25.555Z,17.83
2022-11-29T20:28:53.156Z,16.63
2022-11-29T20:31:22.977Z,17.30
2022-11-29T20:33:53.553Z,16.20
2022-11-29T20:36:32.597Z,16.08
2022-11-29T20:39:19.634Z,16.08
2022-11-29T20:41:59.080Z,16.35
2022-11-29T20:44:43.702Z,16.27
2022-11-29T20:47:19.350Z,16.60
2022-11-29T20:49:47.432Z,16.38
2022-11-29T20:52:32.531Z,15.38
2022-11-29T20:55:00.171Z,14.60
2022-11-29T20:57:28.491Z,14.88
2022-11-29T20:59:55.927Z,14.73
2022-11-29T21:02:23.485Z,14.93
2022-11-29T21:04:51.294Z,17.92
2022-11-29T21:07:18.671Z,15.63
2022-11-29T21:09:46.355Z,16.98
2022-11-29T21:12:14.400Z,15.40
2022-11-29T21:14:42.931Z,16.10
2022-11-29T21:17:10.712Z,16.52
2022-11-29T21:19:39.726Z,16.98
2022-11-29T21:22:25.443Z,15.52
2022-11-29T21:24:59.401Z,15.13
2022-11-29T21:27:33.310Z,15.27
2022-11-29T21:30:05.724Z,14.75
2022-11-29T21:32:33.972Z,18.67
2022-11-29T21:35:01.349Z,18.33
2022-11-29T21:37:30.865Z,16.88
2022-11-29T21:39:58.273Z,15.10
2022-11-29T21:42:26.843Z,16.67
2022-11-29T21:44:54.233Z,15.88
2022-11-29T21:47:21.662Z,16.30
2022-11-29T21:49:49.779Z,15.85
2022-11-29T21:52:22.228Z,15.00
2022-11-29T21:54:50.498Z,15.73
2022-11-29T21:57:17.931Z,17.60
2022-11-29T21:59:45.324Z,18.10
2022-11-29T22:02:12.854Z,18.63
2022-11-29T22:04:40.327Z,18.15
2022-11-29T22:07:07.730Z,18.02
2022-11-29T22:09:35.150Z,18.20
2022-11-29T22:12:14.823Z,17.67
2022-11-29T22:14:49.938Z,18.45
2022-11-29T22:17:17.287Z,18.50
2022-11-29T22:19:44.685Z,18.23
2022-11-29T22:22:12.158Z,16.73
2022-11-29T22:24:39.510Z,15.60
2022-11-29T22:27:07.154Z,18.40
2022-11-29T22:29:34.571Z,19.52
2022-11-29T22:32:02.321Z,18.83
2022-11-29T22:34:29.726Z,18.65
2022-11-29T22:36:57.098Z,18.65
2022-11-29T22:39:24.560Z,19.08
2022-11-29T22:41:54.741Z,19.08
2022-11-29T22:44:23.841Z,18.95
2022-11-29T22:46:51.593Z,19.35
2022-11-29T22:49:19.107Z,17.75
2022-11-29T22:51:46.495Z,16.98
2022-11-29T22:54:16.433Z,16.85
2022-11-29T22:56:45.537Z,16.38
2022-11-29T22:59:13.334Z,15.77
2022-11-29T23:01:41.749Z,18.70
2022-11-29T23:04:10.771Z,17.42
2022-11-29T23:06:43.685Z,16.67
2022-11-29T23:09:22.439Z,15.95
2022-11-29T23:11:54.207Z,15.30
2022-11-29T23:14:22.475Z,16.00
2022-11-29T23:16:50.153Z,15.98
2022-11-29T23:19:17.576Z,16.10
2022-11-29T23:21:46.197Z,16.65
2022-11-29T23:24:16.389Z,16.25
2022-11-29T23:26:46.133Z,18.45
2022-11-29T23:29:16.119Z,18.42
2022-11-29T23:31:44.235Z,18.15
2022-11-29T23:34:11.893Z,19.60
2022-11-29T23:36:39.493Z,18.05
2022-11-29T23:39:07.731Z,18.83
2022-11-29T23:41:36.836Z,18.65
2022-11-29T23:44:09.312Z,18.77
2022-11-29T23:46:36.969Z,19.70
2022-11-29T23:49:04.466Z,19.23
2022-11-29T23:51:31.847Z,17.98
2022-11-29T23:53:59.262Z,20.50
2022-11-29T23:56:27.258Z,18.70
2022-11-29T23:58:54.637Z,18.27
